Time;durP1;ratioP1;P1;durP2;ratioP2;P2;SDS_P1;SDS_P2;PMS_P1;PMS_P2;Temp;Humidity;BMP_temperature;BMP_pressure;BME280_temperature;BME280_humidity;BME280_pressure;Samples;Min_cycle;Max_cycle;Signal;HPM_P1;HPM_P2
2021/05/18 00:00:38;;;;;;;0.30;0.30;;;8.40;99.90;;;;;;5071490;28;20033;-80
2021/05/18 00:03:10;;;;;;;0.80;0.77;;;8.30;99.90;;;;;;5055958;28;20044;-80
2021/05/18 00:05:40;;;;;;;0.82;0.52;;;8.20;99.90;;;;;;5080542;28;20499;-81
2021/05/18 00:08:08;;;;;;;1.42;0.43;;;8.20;99.90;;;;;;5081285;28;20519;-80
2021/05/18 00:13:34;;;;;;;0.20;0.20;;;8.20;99.90;;;;;;5084916;28;20077;-81
2021/05/18 00:16:01;;;;;;;0.13;0.13;;;8.20;99.90;;;;;;5086891;28;20163;-81
2021/05/18 00:18:28;;;;;;;0.10;0.10;;;8.10;99.90;;;;;;5074139;28;20479;-80
2021/05/18 00:20:54;;;;;;;5.43;0.80;;;8.10;99.90;;;;;;5081209;28;20491;-80
2021/05/18 00:23:21;;;;;;;0.25;0.25;;;8.00;99.90;;;;;;5071967;28;20033;-81
2021/05/18 00:25:47;;;;;;;0.10;0.10;;;8.00;99.90;;;;;;5079970;28;20640;-81
2021/05/18 00:28:17;;;;;;;0.52;0.52;;;7.90;99.90;;;;;;5077600;28;20016;-80
2021/05/18 00:30:44;;;;;;;0.32;0.32;;;7.70;99.90;;;;;;5087383;28;20064;-81
2021/05/18 00:33:15;;;;;;;0.57;0.57;;;7.60;99.90;;;;;;5078466;28;20058;-82
2021/05/18 00:35:43;;;;;;;0.20;0.20;;;7.60;99.90;;;;;;5077475;28;20106;-82
2021/05/18 00:38:10;;;;;;;0.10;0.10;;;7.80;99.90;;;;;;5077821;28;20074;-81
2021/05/18 00:40:36;;;;;;;0.20;0.20;;;7.90;99.90;;;;;;5070522;28;20075;-81
2021/05/18 00:43:02;;;;;;;0.20;0.20;;;8.00;99.90;;;;;;5080016;28;20454;-81
2021/05/18 00:45:34;;;;;;;0.10;0.10;;;8.10;99.90;;;;;;5077084;28;20345;-81
2021/05/18 00:48:01;;;;;;;0.10;0.10;;;8.20;99.90;;;;;;5080293;28;20035;-81
2021/05/18 00:50:27;;;;;;;0.17;0.17;;;8.20;99.90;;;;;;5084498;28;20028;-81
2021/05/18 00:52:53;;;;;;;0.00;0.00;;;8.20;99.90;;;;;;5074509;28;20036;-81
2021/05/18 00:55:34;;;;;;;0.10;0.10;;;8.20;99.90;;;;;;5070498;28;20275;-81
2021/05/18 01:00:49;;;;;;;0.47;0.47;;;8.10;99.90;;;;;;5079826;28;20889;-81
2021/05/18 01:03:17;;;;;;;1.45;0.55;;;8.20;99.90;;;;;;5084591;28;20031;-81
2021/05/18 01:08:27;;;;;;;0.10;0.10;;;8.30;99.90;;;;;;5069938;28;20031;-81
2021/05/18 01:10:53;;;;;;;4.10;0.65;;;8.40;99.90;;;;;;5075651;28;20028;-81
2021/05/18 01:13:19;;;;;;;0.45;0.45;;;8.30;99.90;;;;;;5068349;28;20492;-81
2021/05/18 01:15:45;;;;;;;0.10;0.10;;;8.40;99.90;;;;;;5077149;28;20044;-81
2021/05/18 01:18:11;;;;;;;0.45;0.43;;;8.40;99.90;;;;;;5075768;28;20499;-81
2021/05/18 01:20:57;;;;;;;0.10;0.10;;;8.40;99.90;;;;;;5073868;28;20073;-81
2021/05/18 01:23:23;;;;;;;0.10;0.10;;;8.30;99.90;;;;;;5073542;28;20086;-81
2021/05/18 01:25:49;;;;;;;0.73;0.73;;;8.40;99.90;;;;;;5077211;28;20060;-81
2021/05/18 01:28:15;;;;;;;5.50;2.35;;;8.40;99.90;;;;;;5072509;28;20459;-81
2021/05/18 01:30:41;;;;;;;0.10;0.10;;;8.40;99.90;;;;;;5073165;28;20020;-82
2021/05/18 01:33:07;;;;;;;0.10;0.10;;;8.40;99.90;;;;;;5079053;28;20028;-82
2021/05/18 01:35:33;;;;;;;0.10;0.10;;;8.40;99.90;;;;;;5074036;28;20032;-82
2021/05/18 01:38:00;;;;;;;0.20;0.20;;;8.50;99.90;;;;;;5075683;28;20032;-82
2021/05/18 01:43:15;;;;;;;1.70;1.45;;;8.50;99.90;;;;;;5009610;28;20080;-82
2021/05/18 01:45:44;;;;;;;0.10;0.10;;;8.60;99.90;;;;;;5009883;28;20087;-82
2021/05/18 01:48:14;;;;;;;0.10;0.10;;;8.60;99.90;;;;;;5016118;28;20521;-82
2021/05/18 01:50:44;;;;;;;0.73;0.45;;;8.50;99.90;;;;;;5007802;28;20085;-82
2021/05/18 01:53:11;;;;;;;0.10;0.10;;;8.30;99.90;;;;;;5021961;28;20037;-82
2021/05/18 01:55:46;;;;;;;0.10;0.10;;;8.30;99.90;;;;;;5013278;28;20125;-81
2021/05/18 01:58:12;;;;;;;0.00;0.00;;;8.30;99.90;;;;;;5019753;28;20038;-81
2021/05/18 02:00:40;;;;;;;0.10;0.10;;;8.40;99.90;;;;;;5014403;28;20037;-82
2021/05/18 02:03:06;;;;;;;1.98;0.57;;;8.40;99.90;;;;;;5016148;28;20081;-82
2021/05/18 02:05:38;;;;;;;0.90;0.90;;;8.30;99.90;;;;;;5014351;28;20060;-82
2021/05/18 02:08:07;;;;;;;0.15;0.15;;;8.20;99.90;;;;;;5008580;28;20038;-82
2021/05/18 02:10:33;;;;;;;0.10;0.10;;;7.90;99.90;;;;;;5018368;28;20045;-82
2021/05/18 02:12:59;;;;;;;0.10;0.10;;;7.80;99.90;;;;;;5018000;28;20034;-82
2021/05/18 02:26:31;;;;;;;0.10;0.10;;;8.00;99.90;;;;;;5072035;28;20411;-82
2021/05/18 02:28:56;;;;;;;0.10;0.10;;;8.20;99.90;;;;;;5081021;28;20044;-82
2021/05/18 02:31:23;;;;;;;0.10;0.10;;;8.30;99.90;;;;;;5077238;28;20025;-81
2021/05/18 02:33:50;;;;;;;0.10;0.10;;;8.30;99.90;;;;;;5082285;28;20024;-82
2021/05/18 02:36:19;;;;;;;;;;;8.50;99.90;;;;;;5085370;28;20032;-82
2021/05/18 02:38:46;;;;;;;0.68;0.68;;;8.70;99.90;;;;;;5081892;28;19916;-81
2021/05/18 02:41:12;;;;;;;0.03;0.03;;;8.80;99.90;;;;;;5089530;28;20042;-82
2021/05/18 02:43:55;;;;;;;0.20;0.20;;;8.90;99.90;;;;;;5074707;28;20044;-82
2021/05/18 02:51:32;;;;;;;0.10;0.10;;;8.80;99.90;;;;;;5081539;28;20025;-81
2021/05/18 02:53:57;;;;;;;0.10;0.10;;;8.80;99.90;;;;;;5074190;28;20773;-82
2021/05/18 02:56:40;;;;;;;0.10;0.10;;;8.80;99.90;;;;;;5085025;28;20043;-81
2021/05/18 02:59:22;;;;;;;0.20;0.20;;;8.70;99.90;;;;;;5079560;28;20097;-82
2021/05/18 03:01:54;;;;;;;11.75;0.45;;;8.60;99.90;;;;;;5085582;28;20741;-82
2021/05/18 03:04:21;;;;;;;0.10;0.10;;;8.60;99.90;;;;;;5085681;28;20062;-81
2021/05/18 03:06:49;;;;;;;0.20;0.20;;;8.50;99.90;;;;;;5080104;28;20467;-82
2021/05/18 03:09:16;;;;;;;1.10;1.00;;;8.40;99.90;;;;;;5086640;28;20036;-82
2021/05/18 03:11:42;;;;;;;;;;;8.40;99.90;;;;;;5085387;28;20027;-82
2021/05/18 03:14:09;;;;;;;0.10;0.10;;;8.30;99.90;;;;;;5076143;28;19919;-82
2021/05/18 03:16:36;;;;;;;;;;;8.10;99.90;;;;;;5086417;28;20451;-81
2021/05/18 03:19:02;;;;;;;0.55;0.55;;;8.00;99.90;;;;;;5072582;28;19911;-82
2021/05/18 03:21:29;;;;;;;0.10;0.10;;;8.00;99.90;;;;;;5075651;28;20697;-81
2021/05/18 03:23:56;;;;;;;1.13;0.38;;;8.00;99.90;;;;;;5062568;28;20108;-81
2021/05/18 03:26:22;;;;;;;1.20;0.88;;;8.00;99.90;;;;;;5074040;28;20036;-82
2021/05/18 03:28:54;;;;;;;0.45;0.45;;;7.90;99.90;;;;;;5083173;28;20048;-82
2021/05/18 03:36:48;;;;;;;4.63;1.23;;;8.10;99.90;;;;;;5088317;28;20111;-82
2021/05/18 03:39:14;;;;;;;0.68;0.47;;;8.10;99.90;;;;;;5071909;28;20502;-82
2021/05/18 03:41:54;;;;;;;0.10;0.10;;;8.00;99.90;;;;;;5084335;28;20028;-81
2021/05/18 03:52:34;;;;;;;0.10;0.10;;;8.00;99.90;;;;;;5076844;28;20112;-81
2021/05/18 04:03:41;;;;;;;0.38;0.38;;;8.00;99.90;;;;;;5070394;28;20078;-80
2021/05/18 04:16:56;;;;;;;0.10;0.10;;;8.50;99.90;;;;;;5064136;28;20085;-81
2021/05/18 04:19:27;;;;;;;0.10;0.10;;;8.60;99.90;;;;;;5050119;28;20218;-81
2021/05/18 04:52:02;;;;;;;0.13;0.13;;;9.10;99.90;;;;;;5077604;28;20028;-83
2021/05/18 05:00:15;;;;;;;0.10;0.10;;;8.70;99.90;;;;;;5066591;28;20094;-82
2021/05/18 05:08:17;;;;;;;0.10;0.10;;;8.80;99.90;;;;;;5061819;28;20040;-84
2021/05/18 05:15:43;;;;;;;0.73;0.73;;;8.70;99.90;;;;;;5078251;28;20048;-83
2021/05/18 05:18:12;;;;;;;0.10;0.10;;;8.60;99.90;;;;;;5065171;28;20035;-83
2021/05/18 05:20:40;;;;;;;0.17;0.17;;;8.60;99.90;;;;;;5065959;28;20435;-83
2021/05/18 05:23:07;;;;;;;0.40;0.40;;;8.60;99.90;;;;;;5076279;28;20041;-83
2021/05/18 05:25:41;;;;;;;0.10;0.10;;;8.50;99.90;;;;;;5058716;28;20029;-83
2021/05/18 05:28:08;;;;;;;0.30;0.30;;;8.60;99.90;;;;;;5056432;28;20032;-83
2021/05/18 05:30:36;;;;;;;13.43;0.70;;;8.70;99.90;;;;;;5054535;28;20196;-83
2021/05/18 05:33:03;;;;;;;0.10;0.10;;;8.80;99.90;;;;;;5058733;28;20033;-82
2021/05/18 05:35:30;;;;;;;0.10;0.10;;;9.00;99.90;;;;;;5071353;28;20025;-83
2021/05/18 05:37:57;;;;;;;0.10;0.10;;;8.90;99.90;;;;;;5069046;28;20492;-82
2021/05/18 05:40:22;;;;;;;0.50;0.30;;;9.10;99.90;;;;;;5068713;28;20514;-83
2021/05/18 05:42:48;;;;;;;0.75;0.75;;;9.10;99.90;;;;;;5083131;28;20020;-83
2021/05/18 05:45:14;;;;;;;0.30;0.30;;;9.20;99.90;;;;;;5077926;28;20063;-83
2021/05/18 05:47:41;;;;;;;0.20;0.20;;;9.30;99.90;;;;;;5047835;28;20044;-83
2021/05/18 05:50:09;;;;;;;0.13;0.13;;;9.40;99.90;;;;;;5058950;28;20032;-83
2021/05/18 05:52:35;;;;;;;0.22;0.22;;;9.50;99.90;;;;;;5061333;28;20039;-83
2021/05/18 05:55:08;;;;;;;0.10;0.10;;;9.70;99.90;;;;;;5059401;28;20033;-83
2021/05/18 05:57:34;;;;;;;0.20;0.20;;;9.80;99.90;;;;;;5064042;28;20056;-83
2021/05/18 06:00:00;;;;;;;0.10;0.10;;;9.80;99.90;;;;;;5080619;28;20061;-83
2021/05/18 06:02:29;;;;;;;0.10;0.10;;;10.10;99.90;;;;;;5074462;28;20028;-85
2021/05/18 06:04:57;;;;;;;0.17;0.17;;;10.20;99.90;;;;;;5067649;28;20497;-81
2021/05/18 06:07:23;;;;;;;2.25;1.40;;;10.00;99.90;;;;;;5067702;28;20028;-82
2021/05/18 06:09:55;;;;;;;0.80;0.55;;;9.90;99.90;;;;;;5072580;28;20075;-81
2021/05/18 06:13:09;;;;;;;0.20;0.20;;;10.00;99.90;;;;;;5069810;28;20106;-81
2021/05/18 06:15:29;;;;;;;0.10;0.10;;;10.10;99.90;;;;;;5072516;28;20048;-81
2021/05/18 06:42:40;;;;;;;0.25;0.25;;;10.50;99.90;;;;;;5083184;28;20032;-82
2021/05/18 06:47:52;;;;;;;0.10;0.10;;;10.90;99.90;;;;;;5072965;28;20035;-82
2021/05/18 06:50:32;;;;;;;0.30;0.30;;;11.30;99.90;;;;;;5075267;28;20112;-82
2021/05/18 06:53:03;;;;;;;0.10;0.10;;;11.40;99.90;;;;;;5065841;28;20060;-82
2021/05/18 06:55:34;;;;;;;1.10;0.90;;;11.80;99.90;;;;;;5060638;28;20025;-82
2021/05/18 06:58:04;;;;;;;0.10;0.10;;;12.00;99.90;;;;;;5077151;28;20446;-81
2021/05/18 07:00:36;;;;;;;0.43;0.43;;;11.50;99.90;;;;;;5062504;28;20032;-81
2021/05/18 07:03:03;;;;;;;0.95;0.95;;;11.40;99.90;;;;;;5064113;28;20079;-82
2021/05/18 07:05:35;;;;;;;0.10;0.10;;;11.10;99.90;;;;;;5083341;28;20426;-80
2021/05/18 07:10:27;;;;;;;0.13;0.13;;;10.70;99.90;;;;;;5067231;28;20017;-81
2021/05/18 07:12:54;;;;;;;0.10;0.10;;;10.80;99.90;;;;;;5077129;28;20270;-81
2021/05/18 07:15:22;;;;;;;0.20;0.20;;;10.90;99.90;;;;;;5058518;28;20068;-81
2021/05/18 07:17:49;;;;;;;0.22;0.17;;;10.90;99.90;;;;;;5060419;28;20060;-81
2021/05/18 07:20:14;;;;;;;11.27;1.25;;;11.10;99.90;;;;;;5066415;28;20025;-81
2021/05/18 07:22:41;;;;;;;0.13;0.13;;;11.20;99.90;;;;;;5057340;28;20534;-81
2021/05/18 07:25:07;;;;;;;0.20;0.20;;;11.20;99.90;;;;;;5068511;28;20025;-81
2021/05/18 07:27:33;;;;;;;0.65;0.43;;;11.30;99.90;;;;;;5063633;28;20062;-81
2021/05/18 07:30:03;;;;;;;0.10;0.10;;;11.70;99.90;;;;;;5068275;28;20800;-81
2021/05/18 07:32:29;;;;;;;0.10;0.10;;;12.10;99.90;;;;;;5058682;28;20907;-81
2021/05/18 07:34:57;;;;;;;0.17;0.17;;;12.30;99.90;;;;;;5071492;28;20025;-81
2021/05/18 07:37:23;;;;;;;0.50;0.50;;;12.50;99.90;;;;;;5067848;28;20733;-81
2021/05/18 07:39:50;;;;;;;0.30;0.30;;;12.80;99.90;;;;;;5060161;28;20063;-81
2021/05/18 07:42:16;;;;;;;0.75;0.60;;;12.60;99.90;;;;;;5057454;28;20484;-81
2021/05/18 07:44:42;;;;;;;0.10;0.10;;;12.60;99.90;;;;;;5061793;28;20089;-81
2021/05/18 07:47:08;;;;;;;5.55;0.52;;;13.00;99.90;;;;;;5062417;28;20033;-81
2021/05/18 07:49:38;;;;;;;0.00;0.00;;;13.20;99.90;;;;;;5070901;28;20044;-81
2021/05/18 08:00:32;;;;;;;1.55;1.15;;;12.90;99.90;;;;;;5072861;28;20078;-81
2021/05/18 08:05:44;;;;;;;0.10;0.10;;;12.50;99.90;;;;;;5063066;28;20032;-81
2021/05/18 08:08:10;;;;;;;0.10;0.10;;;12.40;99.90;;;;;;5059676;28;20028;-81
2021/05/18 08:10:46;;;;;;;0.98;0.90;;;12.40;99.90;;;;;;5063052;28;20012;-81
2021/05/18 08:13:13;;;;;;;0.10;0.10;;;12.60;99.90;;;;;;5073415;28;20059;-81
2021/05/18 08:16:07;;;;;;;;;;;12.50;99.90;;;;;;5068173;28;20646;-81
2021/05/18 08:21:10;;;;;;;0.10;0.10;;;13.10;99.90;;;;;;5063619;28;20132;-81
2021/05/18 09:01:59;;;;;;;0.00;0.00;;;13.90;99.90;;;;;;5062245;28;20107;-82
2021/05/18 10:34:30;;;;;;;0.60;0.32;;;13.90;99.90;;;;;;5011845;28;20041;-82
2021/05/18 10:37:17;;;;;;;0.10;0.10;;;13.30;99.90;;;;;;5000812;28;20414;-82
2021/05/18 10:39:45;;;;;;;0.20;0.20;;;13.60;99.90;;;;;;5017925;28;20034;-82
2021/05/18 10:42:15;;;;;;;0.00;0.00;;;13.80;99.90;;;;;;5014084;28;20054;-82
2021/05/18 10:44:55;;;;;;;0.43;0.40;;;14.00;99.90;;;;;;5018104;28;20025;-82
2021/05/18 10:47:45;;;;;;;1.27;0.82;;;13.60;99.90;;;;;;5004836;28;20053;-81
2021/05/18 10:50:12;;;;;;;0.30;0.30;;;13.70;99.90;;;;;;5014433;28;20429;-81
2021/05/18 10:52:41;;;;;;;0.20;0.20;;;13.50;99.90;;;;;;5017916;28;20092;-81
2021/05/18 10:55:08;;;;;;;0.10;0.10;;;13.40;99.90;;;;;;5036835;28;20123;-81
2021/05/18 10:57:36;;;;;;;4.15;0.63;;;13.30;99.90;;;;;;5065345;28;21096;-82
2021/05/18 11:00:07;;;;;;;0.10;0.10;;;13.30;99.90;;;;;;5067050;28;20488;-81
2021/05/18 11:02:38;;;;;;;0.20;0.20;;;13.30;99.90;;;;;;5067761;28;20039;-81
2021/05/18 11:05:10;;;;;;;0.10;0.10;;;14.00;99.90;;;;;;5061192;28;20059;-82
2021/05/18 11:07:47;;;;;;;0.35;0.35;;;13.70;99.90;;;;;;5052148;28;20028;-81
2021/05/18 11:10:17;;;;;;;0.05;0.05;;;14.10;99.90;;;;;;5056471;28;20024;-82
2021/05/18 11:12:45;;;;;;;0.10;0.10;;;14.40;99.90;;;;;;5063574;28;20028;-82
2021/05/18 11:15:17;;;;;;;0.65;0.45;;;14.70;99.90;;;;;;5052055;28;20060;-81
2021/05/18 11:17:51;;;;;;;0.10;0.10;;;14.80;99.90;;;;;;5054154;28;20108;-82
2021/05/18 11:23:21;;;;;;;0.13;0.13;;;14.60;99.90;;;;;;5058902;28;20051;-82
2021/05/18 11:25:56;;;;;;;0.13;0.13;;;15.00;99.90;;;;;;5056512;28;20013;-82
2021/05/18 11:28:29;;;;;;;0.10;0.10;;;15.20;99.90;;;;;;5055821;28;20104;-82
2021/05/18 11:31:08;;;;;;;0.00;0.00;;;15.20;99.90;;;;;;5052759;28;20103;-82
2021/05/18 11:33:37;;;;;;;0.65;0.65;;;14.90;99.90;;;;;;5053492;28;20037;-81
2021/05/18 11:36:11;;;;;;;0.00;0.00;;;14.40;99.90;;;;;;5062510;28;20032;-81
2021/05/18 11:38:39;;;;;;;1.45;1.35;;;14.20;99.90;;;;;;5053593;28;20032;-81
2021/05/18 11:41:06;;;;;;;1.38;0.63;;;14.10;99.90;;;;;;5064180;28;20024;-81
2021/05/18 11:43:37;;;;;;;0.17;0.17;;;14.30;99.90;;;;;;5065960;28;20035;-81
2021/05/18 11:46:05;;;;;;;1.08;0.30;;;14.30;99.90;;;;;;5056577;28;20480;-81
2021/05/18 11:48:31;;;;;;;0.63;0.63;;;14.00;99.90;;;;;;5055157;28;20036;-81
2021/05/18 11:51:15;;;;;;;0.10;0.10;;;14.10;99.90;;;;;;5057312;28;20012;-81
2021/05/18 11:53:44;;;;;;;0.10;0.10;;;14.40;99.90;;;;;;5058520;28;20087;-81
2021/05/18 11:56:24;;;;;;;0.75;0.20;;;14.60;99.90;;;;;;5065567;28;20020;-81
2021/05/18 11:59:00;;;;;;;0.55;0.55;;;14.50;99.90;;;;;;5059579;28;20021;-81
2021/05/18 12:01:27;;;;;;;0.10;0.10;;;14.70;99.90;;;;;;5066858;28;20029;-81
2021/05/18 12:04:10;;;;;;;0.20;0.20;;;14.50;99.90;;;;;;5067179;28;20032;-81
2021/05/18 12:06:40;;;;;;;0.20;0.20;;;14.60;99.90;;;;;;5062683;28;20021;-81
2021/05/18 12:09:10;;;;;;;0.80;0.80;;;14.30;99.90;;;;;;5057144;28;20052;-81
2021/05/18 12:11:36;;;;;;;0.20;0.20;;;14.10;99.90;;;;;;5053802;28;20021;-81
2021/05/18 12:14:17;;;;;;;0.00;0.00;;;13.70;99.90;;;;;;5054915;28;20021;-81
2021/05/18 12:16:44;;;;;;;0.47;0.47;;;13.70;99.90;;;;;;5055898;28;20415;-81
2021/05/18 12:19:15;;;;;;;0.10;0.10;;;13.70;99.90;;;;;;5059467;28;20496;-81
2021/05/18 12:21:49;;;;;;;0.00;0.00;;;13.60;99.90;;;;;;5058616;28;20032;-81
2021/05/18 12:24:27;;;;;;;0.10;0.10;;;13.60;99.90;;;;;;5060473;28;20032;-81
2021/05/18 12:26:57;;;;;;;0.10;0.10;;;13.40;99.90;;;;;;5059716;28;20822;-81
2021/05/18 12:29:37;;;;;;;0.15;0.15;;;12.80;99.90;;;;;;5063575;28;20028;-81
2021/05/18 12:32:22;;;;;;;0.10;0.10;;;12.60;99.90;;;;;;5073357;28;20035;-81
2021/05/18 12:35:12;;;;;;;0.10;0.10;;;12.70;99.90;;;;;;5063019;28;20035;-81
2021/05/18 12:37:44;;;;;;;0.00;0.00;;;12.40;99.90;;;;;;5049606;28;20033;-81
2021/05/18 12:40:17;;;;;;;0.10;0.10;;;12.20;99.90;;;;;;5077321;28;20020;-81
2021/05/18 12:42:47;;;;;;;0.10;0.10;;;12.10;99.90;;;;;;5067618;28;20033;-82
2021/05/18 12:45:18;;;;;;;1.17;1.00;;;12.10;99.90;;;;;;5083136;28;20012;-82
2021/05/18 12:47:50;;;;;;;0.10;0.10;;;12.30;99.90;;;;;;5077118;28;20032;-82
2021/05/18 12:50:17;;;;;;;0.20;0.20;;;12.20;99.90;;;;;;5068912;28;20023;-82
2021/05/18 12:52:50;;;;;;;0.10;0.10;;;12.30;99.90;;;;;;5073662;28;20029;-82
2021/05/18 12:55:24;;;;;;;0.10;0.10;;;12.40;99.90;;;;;;5073787;28;20055;-82
2021/05/18 12:58:09;;;;;;;2.83;0.75;;;12.30;99.90;;;;;;5072497;28;20659;-82
2021/05/18 13:00:37;;;;;;;0.32;0.32;;;12.20;99.90;;;;;;5068482;28;20556;-82
2021/05/18 13:03:17;;;;;;;0.25;0.25;;;12.40;99.90;;;;;;5071390;28;20043;-82
2021/05/18 13:05:54;;;;;;;0.10;0.10;;;12.30;99.90;;;;;;5062052;28;20045;-82
2021/05/18 13:08:45;;;;;;;0.55;0.55;;;12.80;99.90;;;;;;5054136;28;20024;-82
2021/05/18 13:14:04;;;;;;;0.10;0.10;;;13.10;99.90;;;;;;5056587;28;20028;-82
2021/05/18 13:16:37;;;;;;;0.25;0.25;;;13.40;99.90;;;;;;5055393;28;20156;-82
2021/05/18 13:19:13;;;;;;;2.05;0.63;;;13.20;99.90;;;;;;5072455;28;20035;-82
2021/05/18 13:21:55;;;;;;;0.10;0.10;;;12.90;99.90;;;;;;5076144;28;20027;-82
2021/05/18 13:27:24;;;;;;;0.90;0.65;;;13.20;99.90;;;;;;5052222;28;20044;-81
2021/05/18 13:29:50;;;;;;;0.00;0.00;;;13.10;99.90;;;;;;5072416;28;20020;-82
2021/05/18 13:32:17;;;;;;;0.43;0.43;;;13.30;99.90;;;;;;5063845;28;20039;-81
2021/05/18 13:34:44;;;;;;;0.00;0.00;;;14.10;99.90;;;;;;5054085;28;20485;-82
2021/05/18 13:37:10;;;;;;;0.08;0.08;;;14.10;99.90;;;;;;5061304;28;20035;-82
2021/05/18 13:39:40;;;;;;;7.70;0.63;;;14.00;99.90;;;;;;5061037;28;20035;-81
2021/05/18 13:42:07;;;;;;;0.20;0.20;;;13.30;99.90;;;;;;5058631;28;20031;-82
2021/05/18 13:44:39;;;;;;;;;;;13.50;99.90;;;;;;5066598;28;20021;-82
2021/05/18 13:47:05;;;;;;;0.10;0.10;;;13.00;99.90;;;;;;5060680;28;20299;-82
2021/05/18 13:49:30;;;;;;;0.40;0.40;;;12.70;99.90;;;;;;5057363;28;20098;-81
2021/05/18 13:51:56;;;;;;;0.17;0.17;;;12.50;99.90;;;;;;5064866;28;20044;-81
2021/05/18 13:54:22;;;;;;;17.10;3.42;;;11.80;99.90;;;;;;5069945;28;20036;-81
2021/05/18 13:56:48;;;;;;;0.10;0.10;;;11.70;99.90;;;;;;5063041;28;20098;-81
2021/05/18 13:59:14;;;;;;;0.10;0.10;;;11.50;99.90;;;;;;5075496;28;20027;-81
2021/05/18 14:01:40;;;;;;;0.10;0.10;;;11.10;99.90;;;;;;5056766;28;20032;-81
2021/05/18 14:04:08;;;;;;;0.10;0.10;;;11.20;99.90;;;;;;5061369;28;20029;-81
2021/05/18 14:07:22;;;;;;;0.15;0.15;;;11.50;99.90;;;;;;5061872;28;20037;-81
2021/05/18 14:09:49;;;;;;;0.20;0.20;;;11.70;99.90;;;;;;5080054;28;20471;-81
2021/05/18 14:12:16;;;;;;;0.55;0.55;;;11.80;99.90;;;;;;5060178;28;20115;-81
2021/05/18 14:14:43;;;;;;;0.20;0.20;;;11.20;99.90;;;;;;5060239;28;20090;-82
2021/05/18 14:17:10;;;;;;;;;;;11.20;99.90;;;;;;5063040;28;20127;-81
2021/05/18 14:19:37;;;;;;;0.10;0.10;;;11.70;99.90;;;;;;5061746;28;19908;-81
2021/05/18 14:22:04;;;;;;;0.03;0.03;;;11.60;99.90;;;;;;5067308;28;20032;-81
2021/05/18 14:27:29;;;;;;;0.00;0.00;;;11.50;1.00;;;;;;5043552;28;20440;-82
2021/05/18 14:29:56;;;;;;;0.00;0.00;;;11.70;1.00;;;;;;5042671;28;20029;-81
2021/05/18 14:32:26;;;;;;;0.10;0.10;;;12.00;99.90;;;;;;5044037;28;20033;-81
2021/05/18 14:34:53;;;;;;;0.03;0.03;;;12.40;99.90;;;;;;5034693;28;20041;-81
2021/05/18 14:37:23;;;;;;;0.60;0.60;;;11.80;99.90;;;;;;5022042;28;20098;-81
2021/05/18 14:39:57;;;;;;;0.10;0.10;;;11.80;99.90;;;;;;5036788;28;20044;-81
2021/05/18 14:45:10;;;;;;;0.30;0.30;;;12.20;99.90;;;;;;5035293;28;20883;-81
2021/05/18 14:47:46;;;;;;;0.43;0.43;;;12.30;99.90;;;;;;5029331;28;20033;-82
2021/05/18 14:55:43;;;;;;;0.63;0.57;;;12.40;99.90;;;;;;5040559;28;20064;-81
2021/05/18 14:58:15;;;;;;;0.35;0.25;;;12.60;99.90;;;;;;5026061;28;20076;-83
2021/05/18 15:00:47;;;;;;;0.20;0.20;;;12.70;99.90;;;;;;5044293;28;20033;-81
2021/05/18 15:03:14;;;;;;;0.17;0.17;;;12.40;99.90;;;;;;5041878;28;20559;-82
2021/05/18 15:05:41;;;;;;;0.00;0.00;;;12.40;99.90;;;;;;5050993;28;20025;-82
2021/05/18 15:08:09;;;;;;;0.22;0.22;;;12.20;99.90;;;;;;5051442;28;20123;-82
2021/05/18 15:10:35;;;;;;;0.10;0.10;;;12.00;99.90;;;;;;5070747;28;20491;-82
2021/05/18 15:13:02;;;;;;;0.20;0.20;;;12.10;99.90;;;;;;5061895;28;20049;-82
2021/05/18 15:15:29;;;;;;;0.10;0.10;;;11.70;99.90;;;;;;5061838;28;20131;-82
2021/05/18 15:17:58;;;;;;;0.10;0.10;;;11.50;99.90;;;;;;5050629;28;20044;-81
2021/05/18 15:20:26;;;;;;;0.10;0.10;;;11.70;99.90;;;;;;5061825;28;20450;-82
2021/05/18 15:22:53;;;;;;;0.10;0.10;;;11.90;99.90;;;;;;5065490;28;20103;-82
2021/05/18 15:25:21;;;;;;;;;;;12.10;99.90;;;;;;5050301;28;20025;-83
2021/05/18 15:27:47;;;;;;;0.10;0.10;;;12.40;99.90;;;;;;5055001;28;19913;-83
2021/05/18 15:30:17;;;;;;;0.32;0.32;;;12.50;99.90;;;;;;5052680;28;20052;-83
2021/05/18 15:32:43;;;;;;;0.10;0.10;;;12.40;99.90;;;;;;5054194;28;20034;-82
2021/05/18 15:35:09;;;;;;;0.98;0.52;;;12.50;99.90;;;;;;5057495;28;20024;-82
2021/05/18 15:37:35;;;;;;;0.20;0.20;;;12.90;99.90;;;;;;5066971;28;20531;-83
2021/05/18 15:40:03;;;;;;;0.10;0.10;;;13.00;99.90;;;;;;5069975;28;20058;-82
2021/05/18 15:42:29;;;;;;;0.10;0.10;;;12.90;99.90;;;;;;5066062;28;20035;-82
2021/05/18 15:44:55;;;;;;;0.00;0.00;;;12.50;99.90;;;;;;5061770;28;20021;-82
2021/05/18 15:47:22;;;;;;;0.08;0.08;;;12.70;99.90;;;;;;5065476;28;20626;-82
2021/05/18 15:49:49;;;;;;;0.10;0.10;;;12.70;99.90;;;;;;5062895;28;20472;-82
2021/05/18 15:52:15;;;;;;;0.00;0.00;;;12.90;99.90;;;;;;5057370;28;20048;-82
2021/05/18 15:54:41;;;;;;;0.28;0.20;;;12.70;99.90;;;;;;5059594;28;20041;-82
2021/05/18 15:57:15;;;;;;;0.35;0.35;;;12.90;99.90;;;;;;5064510;28;20039;-82
2021/05/18 15:59:42;;;;;;;0.10;0.10;;;12.60;99.90;;;;;;5056353;28;20824;-82
2021/05/18 16:02:08;;;;;;;0.20;0.20;;;12.60;99.90;;;;;;5056033;28;20032;-82
2021/05/18 16:04:51;;;;;;;0.20;0.20;;;12.40;99.90;;;;;;5056809;28;20032;-82
2021/05/18 16:07:20;;;;;;;0.90;0.60;;;12.50;99.90;;;;;;5060604;28;20024;-82
2021/05/18 16:09:48;;;;;;;0.10;0.10;;;12.50;99.90;;;;;;5060260;28;20029;-82
2021/05/18 16:12:14;;;;;;;0.10;0.10;;;12.70;99.90;;;;;;5057985;28;20459;-82
2021/05/18 16:14:41;;;;;;;0.10;0.10;;;12.70;99.90;;;;;;5050895;28;20497;-82
2021/05/18 16:17:07;;;;;;;0.10;0.10;;;12.60;99.90;;;;;;5051339;28;20120;-82
2021/05/18 16:19:33;;;;;;;0.57;0.52;;;12.60;99.90;;;;;;5056345;28;20064;-82
2021/05/18 16:22:02;;;;;;;0.10;0.10;;;12.50;99.90;;;;;;5074202;28;20035;-82
2021/05/18 16:24:34;;;;;;;0.10;0.10;;;12.40;99.90;;;;;;5066860;28;20045;-83
2021/05/18 16:27:01;;;;;;;0.10;0.10;;;12.40;99.90;;;;;;5074602;28;20027;-81
2021/05/18 16:29:32;;;;;;;0.30;0.30;;;12.30;99.90;;;;;;5062520;28;20107;-82
2021/05/18 16:32:01;;;;;;;0.10;0.10;;;12.40;99.90;;;;;;5060285;28;20037;-81
2021/05/18 16:34:29;;;;;;;0.10;0.10;;;12.50;99.90;;;;;;5057764;28;20025;-82
2021/05/18 16:36:56;;;;;;;0.10;0.10;;;12.90;99.90;;;;;;5074221;28;20035;-81
2021/05/18 16:39:26;;;;;;;0.57;0.45;;;13.10;99.90;;;;;;5067125;28;20028;-81
2021/05/18 16:41:55;;;;;;;0.10;0.10;;;13.60;99.90;;;;;;5070024;28;20017;-82
2021/05/18 16:44:23;;;;;;;0.10;0.10;;;13.50;99.90;;;;;;5085458;28;20039;-82
2021/05/18 16:46:50;;;;;;;0.10;0.10;;;13.30;99.90;;;;;;5080240;28;20585;-83
2021/05/18 16:49:17;;;;;;;0.08;0.08;;;13.10;99.90;;;;;;5076909;28;20028;-82
2021/05/18 16:51:44;;;;;;;0.00;0.00;;;13.20;99.90;;;;;;5073004;28;20020;-82
2021/05/18 16:54:11;;;;;;;0.10;0.10;;;13.20;99.90;;;;;;5068886;28;20601;-83
2021/05/18 16:56:39;;;;;;;0.00;0.00;;;13.20;99.90;;;;;;5077561;28;20059;-82
2021/05/18 16:59:06;;;;;;;0.10;0.10;;;13.00;99.90;;;;;;5067090;28;20090;-82
2021/05/18 17:01:32;;;;;;;0.10;0.10;;;12.70;99.90;;;;;;5067123;28;20032;-84
2021/05/18 17:03:58;;;;;;;0.10;0.10;;;12.70;99.90;;;;;;5074164;28;20036;-80
2021/05/18 17:06:24;;;;;;;0.10;0.10;;;12.70;99.90;;;;;;5059325;28;20873;-81
2021/05/18 17:08:52;;;;;;;0.10;0.10;;;12.70;99.90;;;;;;5059416;28;20068;-81
2021/05/18 17:11:20;;;;;;;0.10;0.10;;;12.80;99.90;;;;;;5060615;28;20029;-81
2021/05/18 17:13:46;;;;;;;0.00;0.00;;;13.10;99.90;;;;;;5056519;28;20025;-81
2021/05/18 17:16:12;;;;;;;0.20;0.20;;;13.10;99.90;;;;;;5051986;28;20049;-82
2021/05/18 17:18:38;;;;;;;0.10;0.10;;;13.10;99.90;;;;;;5064592;28;20035;-81
2021/05/18 17:21:04;;;;;;;0.50;0.40;;;13.00;99.90;;;;;;5057590;28;20568;-82
2021/05/18 17:23:30;;;;;;;0.10;0.10;;;13.00;99.90;;;;;;5070692;28;20102;-82
2021/05/18 17:25:56;;;;;;;0.10;0.10;;;12.90;99.90;;;;;;5067881;28;20020;-81
2021/05/18 17:28:26;;;;;;;0.10;0.10;;;13.00;99.90;;;;;;5076952;28;20024;-81
2021/05/18 17:30:52;;;;;;;0.30;0.30;;;13.10;99.90;;;;;;5064705;28;20032;-82
2021/05/18 17:33:18;;;;;;;0.10;0.10;;;12.80;99.90;;;;;;5057307;28;20035;-82
2021/05/18 17:35:49;;;;;;;3.33;0.30;;;12.80;99.90;;;;;;5060367;28;20618;-82
2021/05/18 17:38:17;;;;;;;0.10;0.10;;;12.80;99.90;;;;;;5056059;28;20036;-82
2021/05/18 17:40:44;;;;;;;0.30;0.30;;;12.70;99.90;;;;;;5061229;28;20816;-82
2021/05/18 17:43:11;;;;;;;0.00;0.00;;;12.70;99.90;;;;;;5061996;28;20059;-82
2021/05/18 17:45:37;;;;;;;0.10;0.10;;;12.60;99.90;;;;;;5064636;28;20024;-82
2021/05/18 17:48:06;;;;;;;0.03;0.03;;;12.50;99.90;;;;;;5081299;28;20385;-82
2021/05/18 17:50:39;;;;;;;0.47;0.30;;;12.40;99.90;;;;;;5066266;28;20034;-82
2021/05/18 17:53:04;;;;;;;0.00;0.00;;;12.40;99.90;;;;;;5071235;28;20106;-82
2021/05/18 17:55:31;;;;;;;0.10;0.10;;;12.30;99.90;;;;;;5074874;28;20111;-82
2021/05/18 17:57:57;;;;;;;0.10;0.10;;;12.30;99.90;;;;;;5064569;28;20455;-82
2021/05/18 18:00:25;;;;;;;0.20;0.20;;;12.30;99.90;;;;;;5065368;28;20107;-82
2021/05/18 18:02:56;;;;;;;0.77;0.73;;;12.20;99.90;;;;;;5070683;28;20038;-82